createdAt,value
2022-11-08T00:10:43.626Z,63.971
2022-11-08T00:25:45.975Z,65.363
2022-11-08T00:40:48.342Z,67.505
2022-11-08T00:55:50.652Z,66.387
2022-11-08T01:10:52.966Z,65.522
2022-11-08T01:25:55.244Z,65.72
2022-11-08T01:40:57.665Z,64.623
2022-11-08T01:56:00.241Z,64.03
2022-11-08T02:11:02.515Z,63.65
2022-11-08T02:26:04.830Z,62.195
2022-11-08T02:41:07.195Z,62.144
2022-11-08T02:56:09.566Z,63.922
2022-11-08T03:11:11.901Z,61.976
2022-11-08T03:26:14.113Z,63.096
2022-11-08T03:41:16.633Z,62.401
2022-11-08T03:56:19.179Z,61.668
2022-11-08T04:11:21.615Z,63.787
2022-11-08T04:26:23.838Z,64.707
2022-11-08T04:41:26.062Z,63.462
2022-11-08T04:56:28.573Z,68.667
2022-11-08T05:11:30.866Z,65.19
2022-11-08T05:26:33.314Z,65.131
2022-11-08T05:41:36.052Z,66.746
2022-11-08T05:56:38.423Z,66.063
2022-11-08T06:11:40.789Z,65.487
2022-11-08T06:26:43.377Z,65.301
2022-11-08T06:41:45.627Z,66.295
2022-11-08T06:56:47.990Z,67.334
2022-11-08T07:11:50.195Z,67.239
2022-11-08T07:26:52.441Z,67.013
2022-11-08T07:41:54.827Z,67.262
2022-11-08T07:56:58.336Z,65.366
2022-11-08T08:12:01.506Z,65.597
2022-11-08T08:27:03.691Z,64.552
2022-11-08T08:42:05.878Z,64.959
2022-11-08T08:57:08.096Z,65.035
2022-11-08T09:12:11.881Z,64.92
2022-11-08T09:27:16.850Z,63.981
2022-11-08T09:42:19.091Z,64.775
2022-11-08T09:57:21.330Z,63.36
2022-11-08T10:12:23.527Z,62.847
2022-11-08T10:27:25.730Z,62.073
2022-11-08T10:42:27.991Z,62.767
2022-11-08T10:57:30.213Z,63.125
2022-11-08T11:12:32.426Z,63.431
2022-11-08T11:27:34.778Z,64.12
2022-11-08T11:42:46.184Z,63.734
2022-11-08T11:57:49.446Z,63.263
2022-11-08T12:12:51.703Z,63.95
2022-11-08T12:27:54.001Z,62.839
2022-11-08T12:42:56.385Z,61.226
2022-11-08T12:57:58.594Z,63.107
2022-11-08T13:13:00.788Z,62.043
2022-11-08T13:28:02.988Z,63.736
2022-11-08T13:43:05.457Z,62.392
2022-11-08T13:58:07.823Z,62.211
2022-11-08T14:13:10.108Z,63.543
2022-11-08T14:28:12.433Z,62.723
2022-11-08T14:43:14.898Z,63.618
2022-11-08T14:58:17.473Z,68.884
2022-11-08T15:13:20.341Z,72.933
2022-11-08T15:28:22.743Z,71.481
2022-11-08T15:43:25.738Z,70.678
2022-11-08T15:58:27.976Z,68.962
2022-11-08T16:13:30.214Z,67.61
2022-11-08T16:28:32.413Z,65.437
2022-11-08T16:43:34.632Z,64.01
2022-11-08T16:58:36.851Z,61.291
2022-11-08T17:13:40.630Z,63.012
2022-11-08T17:28:43.139Z,62.412
2022-11-08T17:43:45.339Z,59.798
2022-11-08T17:58:47.584Z,61.861
2022-11-08T18:13:50.009Z,60.632
2022-11-08T18:28:52.549Z,61.453
2022-11-08T18:43:55.095Z,62.073
2022-11-08T18:58:57.609Z,63.061
2022-11-08T19:13:59.915Z,63.501
2022-11-08T19:29:02.333Z,64.715
2022-11-08T19:44:04.569Z,62.33
2022-11-08T19:59:06.848Z,62.556
2022-11-08T20:14:09.099Z,61.386
2022-11-08T20:29:11.365Z,60.927
2022-11-08T20:44:13.602Z,60.077
2022-11-08T20:59:15.968Z,60.322
2022-11-08T21:14:18.253Z,59.929
2022-11-08T21:29:20.665Z,57.927
2022-11-08T21:44:22.982Z,56.634
2022-11-08T21:59:25.222Z,58.08
2022-11-08T22:14:27.702Z,58.527
2022-11-08T22:29:30.141Z,60.35
2022-11-08T22:44:32.388Z,60.335
2022-11-08T22:59:34.632Z,60.924
2022-11-08T23:14:37.827Z,60.999
2022-11-08T23:29:40.213Z,61.571
2022-11-08T23:44:42.542Z,60.697
2022-11-08T23:59:44.808Z,61.438
